sensor_id;sensor_type;location;lat;lon;timestamp;pressure;altitude;pressure_sealevel;temperature;humidity
57900;BME280;60605;53.716;19.940;2023-05-23T00:04:26;100359.31;;;12.68;86.41
57900;BME280;60605;53.716;19.940;2023-05-23T00:09:28;100361.27;;;12.66;87.02
57900;BME280;60605;53.716;19.940;2023-05-23T00:14:31;100364.98;;;12.61;86.75
57900;BME280;60605;53.716;19.940;2023-05-23T00:19:34;100364.23;;;12.50;86.36
57900;BME280;60605;53.716;19.940;2023-05-23T00:24:37;100366.11;;;12.37;87.01
57900;BME280;60605;53.716;19.940;2023-05-23T00:29:39;100367.09;;;12.28;88.11
57900;BME280;60605;53.716;19.940;2023-05-23T00:34:41;100369.16;;;12.24;88.93
57900;BME280;60605;53.716;19.940;2023-05-23T00:39:43;100367.27;;;12.20;89.24
57900;BME280;60605;53.716;19.940;2023-05-23T00:44:45;100367.05;;;12.17;89.72
57900;BME280;60605;53.716;19.940;2023-05-23T00:49:49;100361.46;;;12.14;90.20
57900;BME280;60605;53.716;19.940;2023-05-23T00:54:51;100353.84;;;12.08;90.17
57900;BME280;60605;53.716;19.940;2023-05-23T00:59:53;100352.55;;;12.00;90.26
57900;BME280;60605;53.716;19.940;2023-05-23T01:04:55;100351.48;;;11.95;90.70
57900;BME280;60605;53.716;19.940;2023-05-23T01:09:57;100352.69;;;11.92;90.84
57900;BME280;60605;53.716;19.940;2023-05-23T01:15:12;100355.35;;;11.87;90.90
57900;BME280;60605;53.716;19.940;2023-05-23T01:20:27;100349.80;;;11.82;91.06
57900;BME280;60605;53.716;19.940;2023-05-23T01:31:02;100347.54;;;11.71;90.79
57900;BME280;60605;53.716;19.940;2023-05-23T01:36:06;100339.95;;;11.63;91.08
57900;BME280;60605;53.716;19.940;2023-05-23T01:41:08;100337.67;;;11.56;91.71
57900;BME280;60605;53.716;19.940;2023-05-23T01:46:10;100337.96;;;11.50;92.47
57900;BME280;60605;53.716;19.940;2023-05-23T01:51:13;100333.95;;;11.43;92.45
57900;BME280;60605;53.716;19.940;2023-05-23T01:56:16;100335.94;;;11.35;92.51
57900;BME280;60605;53.716;19.940;2023-05-23T02:01:19;100340.60;;;11.22;93.57
57900;BME280;60605;53.716;19.940;2023-05-23T02:06:22;100337.13;;;11.13;94.00
57900;BME280;60605;53.716;19.940;2023-05-23T02:11:24;100334.95;;;11.08;94.09
57900;BME280;60605;53.716;19.940;2023-05-23T02:16:27;100331.68;;;11.01;94.10
57900;BME280;60605;53.716;19.940;2023-05-23T02:21:29;100328.21;;;10.93;94.42
57900;BME280;60605;53.716;19.940;2023-05-23T02:26:35;100324.23;;;10.85;94.90
57900;BME280;60605;53.716;19.940;2023-05-23T02:31:37;100324.60;;;10.78;95.17
57900;BME280;60605;53.716;19.940;2023-05-23T02:36:39;100323.42;;;10.72;95.50
57900;BME280;60605;53.716;19.940;2023-05-23T02:41:41;100323.69;;;10.69;95.91
57900;BME280;60605;53.716;19.940;2023-05-23T02:46:44;100318.77;;;10.66;95.78
57900;BME280;60605;53.716;19.940;2023-05-23T02:51:46;100314.55;;;10.66;96.41
57900;BME280;60605;53.716;19.940;2023-05-23T02:56:48;100316.34;;;10.69;97.01
57900;BME280;60605;53.716;19.940;2023-05-23T03:01:52;100320.59;;;10.77;97.31
57900;BME280;60605;53.716;19.940;2023-05-23T03:06:55;100321.52;;;10.85;97.04
57900;BME280;60605;53.716;19.940;2023-05-23T03:11:57;100317.77;;;10.94;96.69
57900;BME280;60605;53.716;19.940;2023-05-23T03:16:59;100319.77;;;11.02;96.79
57900;BME280;60605;53.716;19.940;2023-05-23T03:22:01;100318.42;;;11.17;97.86
57900;BME280;60605;53.716;19.940;2023-05-23T03:27:03;100315.73;;;11.36;98.25
57900;BME280;60605;53.716;19.940;2023-05-23T03:32:05;100315.52;;;11.61;98.24
57900;BME280;60605;53.716;19.940;2023-05-23T03:37:07;100315.36;;;11.96;97.54
57900;BME280;60605;53.716;19.940;2023-05-23T03:42:10;100317.38;;;12.46;96.50
57900;BME280;60605;53.716;19.940;2023-05-23T03:47:11;100314.15;;;12.84;94.90
57900;BME280;60605;53.716;19.940;2023-05-23T03:52:13;100310.34;;;13.63;94.02
57900;BME280;60605;53.716;19.940;2023-05-23T03:57:15;100304.14;;;14.75;90.62
57900;BME280;60605;53.716;19.940;2023-05-23T04:02:17;100300.60;;;15.15;84.96
57900;BME280;60605;53.716;19.940;2023-05-23T04:07:20;100297.97;;;15.82;83.48
57900;BME280;60605;53.716;19.940;2023-05-23T04:12:22;100298.64;;;17.08;79.68
57900;BME280;60605;53.716;19.940;2023-05-23T04:17:24;100299.26;;;18.18;74.75
57900;BME280;60605;53.716;19.940;2023-05-23T04:22:26;100297.05;;;19.20;71.36
57900;BME280;60605;53.716;19.940;2023-05-23T04:27:28;100294.98;;;20.14;67.00
57900;BME280;60605;53.716;19.940;2023-05-23T04:32:31;100301.26;;;21.09;64.48
57900;BME280;60605;53.716;19.940;2023-05-23T04:37:33;100301.92;;;22.13;61.24
57900;BME280;60605;53.716;19.940;2023-05-23T04:42:35;100301.36;;;23.04;57.54
57900;BME280;60605;53.716;19.940;2023-05-23T04:47:37;100302.06;;;23.82;54.39
57900;BME280;60605;53.716;19.940;2023-05-23T04:52:40;100302.77;;;24.37;51.35
57900;BME280;60605;53.716;19.940;2023-05-23T04:57:42;100299.33;;;25.09;50.68
57900;BME280;60605;53.716;19.940;2023-05-23T05:02:44;100300.43;;;25.89;48.24
57900;BME280;60605;53.716;19.940;2023-05-23T05:07:46;100299.04;;;26.58;45.58
57900;BME280;60605;53.716;19.940;2023-05-23T05:12:48;100301.47;;;26.92;43.23
57900;BME280;60605;53.716;19.940;2023-05-23T05:17:50;100297.35;;;27.28;42.83
57900;BME280;60605;53.716;19.940;2023-05-23T05:22:56;100290.55;;;27.90;41.66
57900;BME280;60605;53.716;19.940;2023-05-23T05:28:00;100288.69;;;28.56;40.74
57900;BME280;60605;53.716;19.940;2023-05-23T05:33:08;100286.81;;;29.19;40.01
57900;BME280;60605;53.716;19.940;2023-05-23T05:38:10;100284.98;;;30.06;39.34
57900;BME280;60605;53.716;19.940;2023-05-23T05:43:12;100287.54;;;30.54;37.73
57900;BME280;60605;53.716;19.940;2023-05-23T05:48:14;100287.88;;;30.70;34.62
57900;BME280;60605;53.716;19.940;2023-05-23T05:53:17;100283.48;;;30.62;33.27
57900;BME280;60605;53.716;19.940;2023-05-23T05:58:19;100278.16;;;30.81;33.38
57900;BME280;60605;53.716;19.940;2023-05-23T06:03:21;100283.01;;;30.88;33.39
57900;BME280;60605;53.716;19.940;2023-05-23T06:08:25;100282.48;;;31.21;33.76
57900;BME280;60605;53.716;19.940;2023-05-23T06:13:27;100278.27;;;31.90;33.82
57900;BME280;60605;53.716;19.940;2023-05-23T06:18:29;100275.69;;;32.83;32.55
57900;BME280;60605;53.716;19.940;2023-05-23T06:23:31;100275.83;;;33.36;30.92
57900;BME280;60605;53.716;19.940;2023-05-23T06:28:33;100271.44;;;33.69;30.31
57900;BME280;60605;53.716;19.940;2023-05-23T06:33:35;100263.21;;;34.12;29.93
57900;BME280;60605;53.716;19.940;2023-05-23T06:38:37;100256.19;;;34.46;29.85
57900;BME280;60605;53.716;19.940;2023-05-23T06:43:39;100255.99;;;35.09;29.34
57900;BME280;60605;53.716;19.940;2023-05-23T06:48:41;100254.94;;;35.59;27.81
57900;BME280;60605;53.716;19.940;2023-05-23T06:53:43;100253.13;;;36.21;26.29
57900;BME280;60605;53.716;19.940;2023-05-23T06:58:45;100245.42;;;36.88;25.30
57900;BME280;60605;53.716;19.940;2023-05-23T07:03:48;100242.26;;;37.34;23.72
57900;BME280;60605;53.716;19.940;2023-05-23T07:08:50;100246.11;;;37.86;24.03
57900;BME280;60605;53.716;19.940;2023-05-23T07:13:52;100242.93;;;38.57;22.98
57900;BME280;60605;53.716;19.940;2023-05-23T07:18:54;100238.58;;;38.66;21.25
57900;BME280;60605;53.716;19.940;2023-05-23T07:23:56;100235.43;;;38.47;21.57
57900;BME280;60605;53.716;19.940;2023-05-23T07:28:58;100236.07;;;38.98;21.88
57900;BME280;60605;53.716;19.940;2023-05-23T07:34:00;100230.60;;;38.74;20.46
57900;BME280;60605;53.716;19.940;2023-05-23T07:39:02;100226.82;;;38.44;19.93
57900;BME280;60605;53.716;19.940;2023-05-23T07:44:05;100225.94;;;37.65;19.97
57900;BME280;60605;53.716;19.940;2023-05-23T07:49:07;100221.01;;;37.58;20.55
57900;BME280;60605;53.716;19.940;2023-05-23T07:54:09;100215.30;;;37.40;20.36
57900;BME280;60605;53.716;19.940;2023-05-23T07:59:12;100211.36;;;37.21;20.82
57900;BME280;60605;53.716;19.940;2023-05-23T08:04:14;100207.92;;;37.07;20.58
57900;BME280;60605;53.716;19.940;2023-05-23T08:09:16;100208.94;;;37.00;20.50
57900;BME280;60605;53.716;19.940;2023-05-23T08:14:19;100203.97;;;37.34;20.37
57900;BME280;60605;53.716;19.940;2023-05-23T08:19:23;100196.77;;;37.16;19.72
57900;BME280;60605;53.716;19.940;2023-05-23T08:24:25;100197.20;;;37.30;20.61
57900;BME280;60605;53.716;19.940;2023-05-23T08:29:27;100197.95;;;38.00;20.56
57900;BME280;60605;53.716;19.940;2023-05-23T08:34:29;100197.25;;;38.06;19.98
57900;BME280;60605;53.716;19.940;2023-05-23T08:39:32;100197.17;;;38.25;20.62
57900;BME280;60605;53.716;19.940;2023-05-23T08:44:33;100197.56;;;37.43;21.26
57900;BME280;60605;53.716;19.940;2023-05-23T08:49:37;100187.87;;;36.58;21.71
57900;BME280;60605;53.716;19.940;2023-05-23T08:54:41;100182.05;;;36.71;21.87
57900;BME280;60605;53.716;19.940;2023-05-23T08:59:45;100183.49;;;37.94;20.96
57900;BME280;60605;53.716;19.940;2023-05-23T09:04:48;100186.30;;;38.98;19.87
57900;BME280;60605;53.716;19.940;2023-05-23T09:09:50;100180.98;;;38.91;19.48
57900;BME280;60605;53.716;19.940;2023-05-23T09:14:52;100178.83;;;38.59;19.39
57900;BME280;60605;53.716;19.940;2023-05-23T09:19:54;100173.52;;;37.85;19.21
57900;BME280;60605;53.716;19.940;2023-05-23T09:24:57;100167.52;;;38.04;20.82
57900;BME280;60605;53.716;19.940;2023-05-23T09:30:05;100170.13;;;38.95;20.02
57900;BME280;60605;53.716;19.940;2023-05-23T09:35:08;100169.14;;;39.33;19.36
57900;BME280;60605;53.716;19.940;2023-05-23T09:40:13;100165.55;;;39.64;19.34
57900;BME280;60605;53.716;19.940;2023-05-23T09:45:16;100164.05;;;39.16;19.17
57900;BME280;60605;53.716;19.940;2023-05-23T09:50:20;100162.20;;;38.78;18.91
57900;BME280;60605;53.716;19.940;2023-05-23T09:55:22;100153.38;;;38.42;19.15
57900;BME280;60605;53.716;19.940;2023-05-23T10:00:25;100152.95;;;37.57;18.15
57900;BME280;60605;53.716;19.940;2023-05-23T10:05:34;100146.02;;;35.94;20.17
57900;BME280;60605;53.716;19.940;2023-05-23T10:16:07;100133.59;;;32.70;22.65
57900;BME280;60605;53.716;19.940;2023-05-23T10:21:17;100133.07;;;31.48;23.88
57900;BME280;60605;53.716;19.940;2023-05-23T10:26:20;100129.30;;;30.63;23.82
57900;BME280;60605;53.716;19.940;2023-05-23T10:31:23;100123.75;;;29.66;25.76
57900;BME280;60605;53.716;19.940;2023-05-23T10:36:42;100118.08;;;29.26;27.64
57900;BME280;60605;53.716;19.940;2023-05-23T10:41:52;100116.98;;;29.08;29.12
57900;BME280;60605;53.716;19.940;2023-05-23T10:46:58;100121.48;;;28.97;28.31
57900;BME280;60605;53.716;19.940;2023-05-23T10:52:04;100117.97;;;28.91;29.04
57900;BME280;60605;53.716;19.940;2023-05-23T10:57:09;100119.46;;;29.15;28.85
57900;BME280;60605;53.716;19.940;2023-05-23T11:02:13;100113.21;;;29.33;28.81
57900;BME280;60605;53.716;19.940;2023-05-23T11:07:32;100111.54;;;29.73;29.26
57900;BME280;60605;53.716;19.940;2023-05-23T11:12:42;100111.48;;;29.39;27.66
57900;BME280;60605;53.716;19.940;2023-05-23T11:22:53;100107.14;;;29.33;28.07
57900;BME280;60605;53.716;19.940;2023-05-23T11:27:56;100102.90;;;29.14;27.85
57900;BME280;60605;53.716;19.940;2023-05-23T11:33:00;100103.14;;;29.05;28.65
57900;BME280;60605;53.716;19.940;2023-05-23T11:38:08;100101.06;;;28.74;28.19
57900;BME280;60605;53.716;19.940;2023-05-23T11:43:17;100108.78;;;28.61;29.07
57900;BME280;60605;53.716;19.940;2023-05-23T11:48:21;100105.36;;;28.70;29.31
57900;BME280;60605;53.716;19.940;2023-05-23T11:53:26;100103.25;;;28.64;29.15
57900;BME280;60605;53.716;19.940;2023-05-23T11:58:33;100099.50;;;28.20;28.60
57900;BME280;60605;53.716;19.940;2023-05-23T12:08:48;100094.70;;;27.69;29.83
57900;BME280;60605;53.716;19.940;2023-05-23T12:13:51;100088.25;;;27.93;30.02
57900;BME280;60605;53.716;19.940;2023-05-23T12:18:53;100083.36;;;28.07;29.35
57900;BME280;60605;53.716;19.940;2023-05-23T12:23:57;100076.80;;;28.07;29.65
57900;BME280;60605;53.716;19.940;2023-05-23T12:29:01;100073.80;;;28.16;29.21
57900;BME280;60605;53.716;19.940;2023-05-23T12:34:03;100073.52;;;28.41;28.94
57900;BME280;60605;53.716;19.940;2023-05-23T12:39:05;100069.33;;;28.80;29.14
57900;BME280;60605;53.716;19.940;2023-05-23T12:44:07;100068.73;;;29.11;29.24
57900;BME280;60605;53.716;19.940;2023-05-23T12:49:09;100065.13;;;29.26;28.83
57900;BME280;60605;53.716;19.940;2023-05-23T12:54:11;100062.27;;;29.20;28.77
57900;BME280;60605;53.716;19.940;2023-05-23T12:59:15;100063.77;;;29.06;28.35
57900;BME280;60605;53.716;19.940;2023-05-23T13:04:17;100055.98;;;28.85;27.69
57900;BME280;60605;53.716;19.940;2023-05-23T13:09:19;100052.84;;;28.65;27.90
57900;BME280;60605;53.716;19.940;2023-05-23T13:14:23;100050.01;;;28.30;27.94
57900;BME280;60605;53.716;19.940;2023-05-23T13:19:25;100044.83;;;27.93;28.76
57900;BME280;60605;53.716;19.940;2023-05-23T13:24:27;100043.14;;;27.86;29.00
57900;BME280;60605;53.716;19.940;2023-05-23T13:29:30;100040.45;;;27.87;29.68
57900;BME280;60605;53.716;19.940;2023-05-23T13:34:33;100038.18;;;27.96;29.47
57900;BME280;60605;53.716;19.940;2023-05-23T13:39:38;100038.17;;;27.69;29.27
57900;BME280;60605;53.716;19.940;2023-05-23T13:44:40;100034.66;;;27.49;29.89
57900;BME280;60605;53.716;19.940;2023-05-23T13:49:42;100030.34;;;27.41;29.52
57900;BME280;60605;53.716;19.940;2023-05-23T13:54:44;100029.08;;;27.02;29.65
57900;BME280;60605;53.716;19.940;2023-05-23T13:59:47;100029.91;;;26.79;30.53
57900;BME280;60605;53.716;19.940;2023-05-23T14:04:49;100027.48;;;26.50;30.34
57900;BME280;60605;53.716;19.940;2023-05-23T14:09:52;100024.49;;;26.13;30.59
57900;BME280;60605;53.716;19.940;2023-05-23T14:14:55;100022.10;;;25.78;31.11
57900;BME280;60605;53.716;19.940;2023-05-23T14:19:57;100017.17;;;25.53;31.82
57900;BME280;60605;53.716;19.940;2023-05-23T14:24:59;100015.13;;;25.42;32.32
57900;BME280;60605;53.716;19.940;2023-05-23T14:30:03;100014.98;;;25.40;32.78
57900;BME280;60605;53.716;19.940;2023-05-23T14:35:07;100015.70;;;25.48;32.88
57900;BME280;60605;53.716;19.940;2023-05-23T14:40:10;100016.97;;;25.66;32.97
57900;BME280;60605;53.716;19.940;2023-05-23T14:45:14;100014.55;;;25.81;32.97
57900;BME280;60605;53.716;19.940;2023-05-23T14:50:20;100012.12;;;25.98;33.59
57900;BME280;60605;53.716;19.940;2023-05-23T14:55:22;100008.66;;;26.03;33.71
57900;BME280;60605;53.716;19.940;2023-05-23T15:00:25;100007.14;;;26.04;34.26
57900;BME280;60605;53.716;19.940;2023-05-23T15:05:28;100006.33;;;26.04;34.34
57900;BME280;60605;53.716;19.940;2023-05-23T15:10:30;100007.56;;;25.99;34.06
57900;BME280;60605;53.716;19.940;2023-05-23T15:15:34;100008.77;;;25.94;34.42
57900;BME280;60605;53.716;19.940;2023-05-23T15:20:39;100007.72;;;25.78;34.64
57900;BME280;60605;53.716;19.940;2023-05-23T15:25:41;100007.50;;;25.65;34.90
57900;BME280;60605;53.716;19.940;2023-05-23T15:30:49;100005.55;;;25.49;35.03
57900;BME280;60605;53.716;19.940;2023-05-23T15:35:52;100006.52;;;25.37;35.46
57900;BME280;60605;53.716;19.940;2023-05-23T15:40:55;100005.38;;;25.29;36.00
57900;BME280;60605;53.716;19.940;2023-05-23T15:46:00;100000.64;;;25.32;36.51
57900;BME280;60605;53.716;19.940;2023-05-23T15:51:03;99999.77;;;25.59;35.92
57900;BME280;60605;53.716;19.940;2023-05-23T15:56:05;99988.32;;;25.97;35.31
57900;BME280;60605;53.716;19.940;2023-05-23T16:01:07;99980.88;;;26.20;34.64
57900;BME280;60605;53.716;19.940;2023-05-23T16:06:11;99970.60;;;26.20;33.86
57900;BME280;60605;53.716;19.940;2023-05-23T16:11:13;99968.54;;;26.01;33.21
57900;BME280;60605;53.716;19.940;2023-05-23T16:16:15;99966.88;;;25.70;32.86
57900;BME280;60605;53.716;19.940;2023-05-23T16:21:17;99966.70;;;25.46;33.73
57900;BME280;60605;53.716;19.940;2023-05-23T16:26:21;99966.09;;;25.29;34.13
57900;BME280;60605;53.716;19.940;2023-05-23T16:31:28;99966.34;;;25.07;33.97
57900;BME280;60605;53.716;19.940;2023-05-23T16:36:31;99969.41;;;24.77;33.82
57900;BME280;60605;53.716;19.940;2023-05-23T16:41:34;99968.08;;;24.52;33.82
57900;BME280;60605;53.716;19.940;2023-05-23T16:46:36;99969.59;;;24.29;34.35
57900;BME280;60605;53.716;19.940;2023-05-23T16:51:38;99966.58;;;24.10;34.83
57900;BME280;60605;53.716;19.940;2023-05-23T16:56:42;99962.15;;;23.96;35.58
57900;BME280;60605;53.716;19.940;2023-05-23T17:01:44;99963.83;;;23.77;35.37
57900;BME280;60605;53.716;19.940;2023-05-23T17:06:47;99962.77;;;23.57;35.19
57900;BME280;60605;53.716;19.940;2023-05-23T17:11:50;99969.05;;;23.42;35.44
57900;BME280;60605;53.716;19.940;2023-05-23T17:16:53;99971.40;;;23.30;35.99
57900;BME280;60605;53.716;19.940;2023-05-23T17:21:55;99970.43;;;23.19;36.79
57900;BME280;60605;53.716;19.940;2023-05-23T17:26:58;99969.90;;;23.07;37.28
57900;BME280;60605;53.716;19.940;2023-05-23T17:32:01;99970.59;;;22.94;37.93
57900;BME280;60605;53.716;19.940;2023-05-23T17:37:03;99970.30;;;22.79;38.71
57900;BME280;60605;53.716;19.940;2023-05-23T17:42:06;99970.59;;;22.64;39.50
57900;BME280;60605;53.716;19.940;2023-05-23T17:47:09;99966.81;;;22.48;40.27
57900;BME280;60605;53.716;19.940;2023-05-23T17:52:11;99972.70;;;22.33;41.01
57900;BME280;60605;53.716;19.940;2023-05-23T17:57:16;99973.30;;;22.17;42.65
57900;BME280;60605;53.716;19.940;2023-05-23T18:02:18;99970.99;;;22.00;43.70
57900;BME280;60605;53.716;19.940;2023-05-23T18:07:21;99967.42;;;21.81;44.54
57900;BME280;60605;53.716;19.940;2023-05-23T18:12:24;99972.94;;;21.63;45.04
57900;BME280;60605;53.716;19.940;2023-05-23T18:17:27;99977.52;;;21.45;45.56
57900;BME280;60605;53.716;19.940;2023-05-23T18:22:29;99979.98;;;21.29;46.20
57900;BME280;60605;53.716;19.940;2023-05-23T18:27:35;99984.42;;;21.15;46.80
57900;BME280;60605;53.716;19.940;2023-05-23T18:32:38;99990.88;;;21.01;47.41
57900;BME280;60605;53.716;19.940;2023-05-23T18:37:41;99991.92;;;20.85;49.29
57900;BME280;60605;53.716;19.940;2023-05-23T18:42:45;99994.79;;;20.64;51.44
57900;BME280;60605;53.716;19.940;2023-05-23T18:47:49;100003.87;;;20.40;53.22
57900;BME280;60605;53.716;19.940;2023-05-23T18:52:52;100006.42;;;20.18;54.60
57900;BME280;60605;53.716;19.940;2023-05-23T18:57:54;100008.84;;;19.97;55.48
57900;BME280;60605;53.716;19.940;2023-05-23T19:02:56;100010.45;;;19.80;56.14
57900;BME280;60605;53.716;19.940;2023-05-23T19:07:59;100009.27;;;19.67;55.99
57900;BME280;60605;53.716;19.940;2023-05-23T19:13:01;100013.23;;;19.60;55.07
57900;BME280;60605;53.716;19.940;2023-05-23T19:18:05;100014.90;;;19.53;55.04
57900;BME280;60605;53.716;19.940;2023-05-23T19:23:08;100018.96;;;19.45;55.32
57900;BME280;60605;53.716;19.940;2023-05-23T19:28:12;100016.73;;;19.35;56.26
57900;BME280;60605;53.716;19.940;2023-05-23T19:33:19;100012.73;;;19.26;57.16
57900;BME280;60605;53.716;19.940;2023-05-23T19:38:23;100016.94;;;19.17;57.98
57900;BME280;60605;53.716;19.940;2023-05-23T19:43:26;100019.85;;;19.06;58.45
57900;BME280;60605;53.716;19.940;2023-05-23T19:48:29;100023.67;;;18.97;58.97
57900;BME280;60605;53.716;19.940;2023-05-23T19:53:31;100025.27;;;18.89;59.84
57900;BME280;60605;53.716;19.940;2023-05-23T19:58:35;100022.39;;;18.82;60.20
57900;BME280;60605;53.716;19.940;2023-05-23T20:03:37;100021.98;;;18.79;60.08
57900;BME280;60605;53.716;19.940;2023-05-23T20:08:42;100024.92;;;18.76;60.20
57900;BME280;60605;53.716;19.940;2023-05-23T20:13:46;100029.10;;;18.70;61.05
57900;BME280;60605;53.716;19.940;2023-05-23T20:18:48;100035.13;;;18.62;62.22
57900;BME280;60605;53.716;19.940;2023-05-23T20:23:51;100039.71;;;18.54;62.51
57900;BME280;60605;53.716;19.940;2023-05-23T20:28:54;100039.21;;;18.46;63.65
57900;BME280;60605;53.716;19.940;2023-05-23T20:33:56;100044.58;;;18.37;64.44
57900;BME280;60605;53.716;19.940;2023-05-23T20:38:58;100043.16;;;18.26;65.30
57900;BME280;60605;53.716;19.940;2023-05-23T20:44:01;100046.71;;;18.15;66.62
57900;BME280;60605;53.716;19.940;2023-05-23T20:49:06;100056.54;;;18.03;67.39
57900;BME280;60605;53.716;19.940;2023-05-23T20:54:08;100056.69;;;17.96;67.81
57900;BME280;60605;53.716;19.940;2023-05-23T20:59:11;100060.10;;;17.94;68.03
57900;BME280;60605;53.716;19.940;2023-05-23T21:04:13;100060.88;;;17.92;68.04
57900;BME280;60605;53.716;19.940;2023-05-23T21:09:17;100064.85;;;17.91;67.57
57900;BME280;60605;53.716;19.940;2023-05-23T21:14:19;100064.22;;;17.89;67.23
57900;BME280;60605;53.716;19.940;2023-05-23T21:19:21;100061.80;;;17.87;67.41
57900;BME280;60605;53.716;19.940;2023-05-23T21:24:23;100061.79;;;17.83;67.69
57900;BME280;60605;53.716;19.940;2023-05-23T21:29:26;100065.15;;;17.79;68.61
57900;BME280;60605;53.716;19.940;2023-05-23T21:34:28;100065.95;;;17.73;69.35
57900;BME280;60605;53.716;19.940;2023-05-23T21:39:30;100069.19;;;17.67;70.12
57900;BME280;60605;53.716;19.940;2023-05-23T21:44:51;100070.50;;;17.62;70.72
57900;BME280;60605;53.716;19.940;2023-05-23T21:49:53;100071.86;;;17.59;71.45
57900;BME280;60605;53.716;19.940;2023-05-23T21:54:55;100077.11;;;17.57;71.18
57900;BME280;60605;53.716;19.940;2023-05-23T21:59:57;100079.52;;;17.57;70.72
57900;BME280;60605;53.716;19.940;2023-05-23T22:04:59;100075.53;;;17.56;70.42
57900;BME280;60605;53.716;19.940;2023-05-23T22:10:01;100075.20;;;17.53;71.07
57900;BME280;60605;53.716;19.940;2023-05-23T22:15:05;100072.07;;;17.46;71.27
57900;BME280;60605;53.716;19.940;2023-05-23T22:20:07;100076.16;;;17.40;71.36
57900;BME280;60605;53.716;19.940;2023-05-23T22:25:10;100073.02;;;17.36;70.69
57900;BME280;60605;53.716;19.940;2023-05-23T22:30:13;100072.92;;;17.34;69.92
57900;BME280;60605;53.716;19.940;2023-05-23T22:35:16;100075.84;;;17.34;69.17
57900;BME280;60605;53.716;19.940;2023-05-23T22:40:19;100074.71;;;17.34;68.81
57900;BME280;60605;53.716;19.940;2023-05-23T22:45:22;100076.78;;;17.32;68.75
57900;BME280;60605;53.716;19.940;2023-05-23T22:50:25;100080.14;;;17.29;68.54
57900;BME280;60605;53.716;19.940;2023-05-23T22:55:28;100078.46;;;17.24;68.80
57900;BME280;60605;53.716;19.940;2023-05-23T23:00:30;100074.86;;;17.17;69.20
57900;BME280;60605;53.716;19.940;2023-05-23T23:05:33;100071.48;;;17.10;69.71
57900;BME280;60605;53.716;19.940;2023-05-23T23:10:36;100069.08;;;17.02;69.91
57900;BME280;60605;53.716;19.940;2023-05-23T23:15:38;100067.84;;;16.95;70.04
57900;BME280;60605;53.716;19.940;2023-05-23T23:20:41;100067.75;;;16.87;70.32
57900;BME280;60605;53.716;19.940;2023-05-23T23:25:43;100064.16;;;16.80;71.15
57900;BME280;60605;53.716;19.940;2023-05-23T23:30:50;100064.44;;;16.77;71.65
57900;BME280;60605;53.716;19.940;2023-05-23T23:35:53;100062.81;;;16.77;71.60
57900;BME280;60605;53.716;19.940;2023-05-23T23:40:56;100065.33;;;16.78;71.69
57900;BME280;60605;53.716;19.940;2023-05-23T23:45:58;100068.18;;;16.77;71.29
57900;BME280;60605;53.716;19.940;2023-05-23T23:51:01;100068.70;;;16.76;70.96
57900;BME280;60605;53.716;19.940;2023-05-23T23:56:03;100073.23;;;16.73;70.64
